Time;durP1;ratioP1;P1;durP2;ratioP2;P2;SDS_P1;SDS_P2;PMS_P1;PMS_P2;Temp;Humidity;BMP_temperature;BMP_pressure;BME280_temperature;BME280_humidity;BME280_pressure;Samples;Min_cycle;Max_cycle;Signal;HPM_P1;HPM_P2
2023/07/01 00:00:25;;;;;;;;;;;;;;;;;;5090062;28;20012;-67
2023/07/01 00:05:55;;;;;;;;;;;;;;;;;;5091977;27;20291;-67
2023/07/01 00:08:21;;;;;;;;;;;;;;;;;;5091469;28;19958;-67
2023/07/01 00:10:47;;;;;;;;;;;;;;;;;;5091032;28;19951;-68
2023/07/01 00:13:13;;;;;;;;;;;;;;;;;;5091368;28;19969;-67
2023/07/01 00:15:39;;;;;;;;;;;;;;;;;;5091277;28;20325;-68
2023/07/01 00:20:09;;;;;;;;;;;;;;;;;;5091975;27;19912;-68
2023/07/01 00:22:35;;;;;;;;;;;;;;;;;;5091404;28;19995;-67
2023/07/01 00:25:01;;;;;;;;;;;;;;;;;;5090897;28;19908;-67
2023/07/01 00:28:57;;;;;;;;;;;;;;;;;;5092244;27;19923;-67
2023/07/01 00:31:23;;;;;;;;;;;;;;;;;;5091001;28;20003;-67
2023/07/01 00:34:06;;;;;;;;;;;;;;;;;;5091739;27;19917;-67
2023/07/01 00:37:08;;;;;;;;;;;;;;;;;;5091151;27;19916;-67
2023/07/01 00:40:18;;;;;;;;;;;;;;;;;;5091673;27;19917;-67
2023/07/01 00:42:44;;;;;;;;;;;;;;;;;;5091327;28;20008;-67
2023/07/01 00:45:10;;;;;;;;;;;;;;;;;;5091050;28;19909;-67
2023/07/01 00:47:56;;;;;;;;;;;;;;;;;;5092123;28;19916;-67
2023/07/01 00:53:33;;;;;;;;;;;;;;;;;;5091973;27;19916;-67
2023/07/01 00:59:18;;;;;;;;;;;;;;;;;;5132115;27;20008;-67
2023/07/01 01:01:44;;;;;;;;;;;;;;;;;;5132210;28;19970;-67
2023/07/01 01:05:42;;;;;;;;;;;;;;;;;;5091697;27;19916;-69
2023/07/01 01:08:08;;;;;;;;;;;;;;;;;;5091461;28;20007;-69
2023/07/01 01:10:34;;;;;;;;;;;;;;;;;;5091340;28;19908;-67
2023/07/01 01:14:35;;;;;;;;;;;;;;;;;;5091790;28;19923;-68
2023/07/01 01:17:04;;;;;;;;;;;;;;;;;;5091745;28;19995;-68
2023/07/01 01:19:47;;;;;;;;;;;;;;;;;;5091034;28;19916;-67
2023/07/01 01:22:49;;;;;;;;;;;;;;;;;;5173822;27;20009;-67
2023/07/01 01:25:15;;;;;;;;;;;;;;;;;;5155053;27;19911;-67
2023/07/01 01:27:41;;;;;;;;;;;;;;;;;;5173317;27;20411;-67
2023/07/01 01:31:00;;;;;;;;;;;;;;;;;;5071499;28;20392;-67
2023/07/01 01:37:01;;;;;;;;;;;;;;;;;;5091469;27;19916;-67
2023/07/01 01:41:24;;;;;;;;;;;;;;;;;;5091460;28;19912;-67
2023/07/01 01:46:04;;;;;;;;;;;;;;;;;;5091747;28;20392;-67
2023/07/01 01:48:59;;;;;;;;;;;;;;;;;;5091229;27;19919;-67
2023/07/01 01:51:25;;;;;;;;;;;;;;;;;;5091396;28;19920;-67
2023/07/01 01:53:51;;;;;;;;;;;;;;;;;;5091345;28;19908;-67
2023/07/01 01:56:42;;;;;;;;;;;;;;;;;;5091041;27;19916;-67
2023/07/01 02:01:24;;;;;;;;;;;;;;;;;;5091599;28;19919;-68
2023/07/01 02:07:16;;;;;;;;;;;;;;;;;;5112030;27;19916;-67
2023/07/01 02:09:42;;;;;;;;;;;;;;;;;;5111417;28;19998;-67
2023/07/01 02:12:08;;;;;;;;;;;;;;;;;;5112129;28;20352;-68
2023/07/01 02:14:34;;;;;;;;;;;;;;;;;;5110412;28;20357;-68
2023/07/01 02:22:13;;;;;;;;;;;;;;;;;;5091761;27;19916;-67
2023/07/01 02:24:39;;;;;;;;;;;;;;;;;;5091044;28;20011;-67
2023/07/01 02:29:20;;;;;;;;;;;;;;;;;;5092279;27;19919;-67
2023/07/01 02:31:46;;;;;;;;;;;;;;;;;;5091034;28;19999;-68
2023/07/01 02:35:23;;;;;;;;;;;;;;;;;;5092251;27;19916;-67
2023/07/01 02:37:49;;;;;;;;;;;;;;;;;;5091051;28;20006;-67
2023/07/01 02:40:15;;;;;;;;;;;;;;;;;;5091430;28;19908;-67
2023/07/01 02:43:58;;;;;;;;;;;;;;;;;;5091688;28;19930;-67
2023/07/01 02:46:24;;;;;;;;;;;;;;;;;;5091408;28;20011;-67
2023/07/01 02:48:50;;;;;;;;;;;;;;;;;;5091261;28;19909;-67
2023/07/01 02:51:16;;;;;;;;;;;;;;;;;;5090852;28;19909;-67
2023/07/01 02:53:42;;;;;;;;;;;;;;;;;;5091507;28;19909;-67
2023/07/01 02:56:08;;;;;;;;;;;;;;;;;;5091162;28;19912;-67
2023/07/01 02:59:05;;;;;;;;;;;;;;;;;;5091063;27;20283;-67
2023/07/01 03:01:31;;;;;;;;;;;;;;;;;;5091357;28;20002;-68
2023/07/01 03:05:09;;;;;;;;;;;;;;;;;;5091005;28;20307;-67
2023/07/01 03:08:20;;;;;;;;;;;;;;;;;;5092214;27;19916;-67
2023/07/01 03:10:46;;;;;;;;;;;;;;;;;;5091469;28;20015;-67
2023/07/01 03:14:00;;;;;;;;;;;;;;;;;;5091055;27;19916;-67
2023/07/01 03:16:26;;;;;;;;;;;;;;;;;;5091388;28;19935;-67
2023/07/01 03:27:04;;;;;;;;;;;;;;;;;;5091418;27;19919;-67
2023/07/01 03:31:07;;;;;;;;;;;;;;;;;;5071599;28;20411;-67
2023/07/01 03:33:33;;;;;;;;;;;;;;;;;;5070778;28;19919;-67
2023/07/01 03:35:59;;;;;;;;;;;;;;;;;;5071366;28;19995;-67
2023/07/01 03:40:59;;;;;;;;;;;;;;;;;;5091087;27;19935;-67
2023/07/01 03:43:37;;;;;;;;;;;;;;;;;;5091622;28;19916;-67
2023/07/01 03:47:57;;;;;;;;;;;;;;;;;;5091489;27;19923;-67
2023/07/01 03:50:23;;;;;;;;;;;;;;;;;;5090078;28;19998;-68
2023/07/01 03:56:35;;;;;;;;;;;;;;;;;;5112329;27;19916;-67
2023/07/01 04:01:16;;;;;;;;;;;;;;;;;;5091409;27;19922;-67
2023/07/01 04:03:42;;;;;;;;;;;;;;;;;;5091368;28;19966;-67
2023/07/01 04:06:08;;;;;;;;;;;;;;;;;;5091252;28;19912;-67
2023/07/01 04:09:51;;;;;;;;;;;;;;;;;;5091101;27;20406;-67
2023/07/01 04:14:51;;;;;;;;;;;;;;;;;;5091506;27;19916;-67
2023/07/01 04:17:17;;;;;;;;;;;;;;;;;;5090937;28;19998;-67
2023/07/01 04:20:20;;;;;;;;;;;;;;;;;;5091371;27;20305;-67
2023/07/01 04:22:46;;;;;;;;;;;;;;;;;;5091099;28;20284;-68
2023/07/01 04:25:12;;;;;;;;;;;;;;;;;;5091229;28;19909;-67
2023/07/01 04:27:38;;;;;;;;;;;;;;;;;;5091190;28;19947;-68
2023/07/01 04:33:40;;;;;;;;;;;;;;;;;;5091842;27;20407;-67
2023/07/01 04:36:06;;;;;;;;;;;;;;;;;;5091371;28;20000;-67
2023/07/01 04:42:03;;;;;;;;;;;;;;;;;;5092226;27;20261;-67
2023/07/01 04:44:29;;;;;;;;;;;;;;;;;;5090846;28;20003;-68
2023/07/01 04:48:20;;;;;;;;;;;;;;;;;;5091866;27;19919;-67
2023/07/01 04:52:24;;;;;;;;;;;;;;;;;;5091051;27;19916;-67
2023/07/01 04:54:50;;;;;;;;;;;;;;;;;;5091556;28;19918;-67
2023/07/01 04:57:16;;;;;;;;;;;;;;;;;;5091326;28;19908;-68
2023/07/01 05:01:46;;;;;;;;;;;;;;;;;;5091666;27;19916;-67
2023/07/01 05:04:12;;;;;;;;;;;;;;;;;;5091530;28;20011;-67
2023/07/01 05:07:55;;;;;;;;;;;;;;;;;;5091613;28;19919;-68
2023/07/01 05:10:21;;;;;;;;;;;;;;;;;;5091522;28;20003;-67
2023/07/01 05:12:59;;;;;;;;;;;;;;;;;;5091189;27;19939;-67
2023/07/01 05:15:25;;;;;;;;;;;;;;;;;;5091918;28;19999;-67
2023/07/01 05:17:51;;;;;;;;;;;;;;;;;;5091364;28;19908;-68
2023/07/01 05:20:17;;;;;;;;;;;;;;;;;;5090857;28;19931;-67
2023/07/01 05:24:19;;;;;;;;;;;;;;;;;;5092181;27;19916;-67
2023/07/01 05:27:03;;;;;;;;;;;;;;;;;;5071121;28;19917;-67
2023/07/01 05:30:05;;;;;;;;;;;;;;;;;;5092295;27;19912;-67
2023/07/01 05:32:31;;;;;;;;;;;;;;;;;;5091016;28;20341;-67
2023/07/01 05:37:21;;;;;;;;;;;;;;;;;;5091790;27;20303;-68
2023/07/01 05:40:28;;;;;;;;;;;;;;;;;;5091298;27;19916;-68
2023/07/01 05:42:54;;;;;;;;;;;;;;;;;;5091375;28;19955;-67
2023/07/01 05:47:17;;;;;;;;;;;;;;;;;;5111363;27;19916;-68
2023/07/01 05:49:43;;;;;;;;;;;;;;;;;;5111784;28;20261;-69
2023/07/01 05:52:09;;;;;;;;;;;;;;;;;;5111668;28;19915;-68
2023/07/01 05:54:35;;;;;;;;;;;;;;;;;;5111254;28;19908;-68
2023/07/01 05:57:01;;;;;;;;;;;;;;;;;;5111554;28;19931;-68
2023/07/01 06:01:44;;;;;;;;;;;;;;;;;;5091266;27;19916;-68
2023/07/01 06:07:00;;;;;;;;;;;;;;;;;;5091616;27;19923;-68
2023/07/01 06:09:26;;;;;;;;;;;;;;;;;;5091023;28;19995;-67
2023/07/01 06:12:45;;;;;;;;;;;;;;;;;;5092102;27;19916;-68
2023/07/01 06:16:03;;;;;;;;;;;;;;;;;;5091330;27;20308;-68
2023/07/01 06:19:37;;;;;;;;;;;;;;;;;;5071781;27;19913;-68
2023/07/01 06:25:34;;;;;;;;;;;;;;;;;;5071640;28;20292;-68
2023/07/01 06:28:00;;;;;;;;;;;;;;;;;;5071185;28;20003;-68
2023/07/01 06:31:38;;;;;;;;;;;;;;;;;;5091754;28;19916;-68
2023/07/01 06:35:07;;;;;;;;;;;;;;;;;;5091417;27;20300;-67
2023/07/01 06:37:33;;;;;;;;;;;;;;;;;;5091088;28;20003;-68
2023/07/01 06:39:59;;;;;;;;;;;;;;;;;;5091311;28;19908;-68
2023/07/01 06:42:25;;;;;;;;;;;;;;;;;;5089979;28;20004;-68
2023/07/01 06:44:51;;;;;;;;;;;;;;;;;;5090773;28;20344;-68
2023/07/01 06:47:17;;;;;;;;;;;;;;;;;;5091187;28;19913;-68
2023/07/01 06:50:12;;;;;;;;;;;;;;;;;;5091226;27;20393;-68
2023/07/01 06:52:38;;;;;;;;;;;;;;;;;;5091400;28;19999;-67
2023/07/01 06:55:04;;;;;;;;;;;;;;;;;;5091335;28;20360;-68
2023/07/01 06:57:30;;;;;;;;;;;;;;;;;;5090817;28;19909;-68
2023/07/01 06:59:56;;;;;;;;;;;;;;;;;;5091270;28;20265;-68
2023/07/01 07:02:22;;;;;;;;;;;;;;;;;;5089857;28;20007;-68
2023/07/01 07:04:48;;;;;;;;;;;;;;;;;;5089453;28;19908;-68
2023/07/01 07:07:14;;;;;;;;;;;;;;;;;;5091195;28;19999;-68
2023/07/01 07:10:18;;;;;;;;;;;;;;;;;;5091997;27;19917;-68
2023/07/01 07:12:44;;;;;;;;;;;;;;;;;;5090895;28;19913;-68
2023/07/01 07:15:10;;;;;;;;;;;;;;;;;;5091358;28;19909;-68
2023/07/01 07:17:36;;;;;;;;;;;;;;;;;;5091311;28;19909;-68
2023/07/01 07:20:02;;;;;;;;;;;;;;;;;;5090786;28;19908;-68
2023/07/01 07:22:28;;;;;;;;;;;;;;;;;;5091320;28;19912;-68
2023/07/01 07:24:54;;;;;;;;;;;;;;;;;;5091572;28;19965;-68
2023/07/01 07:27:20;;;;;;;;;;;;;;;;;;5090736;28;19908;-68
2023/07/01 07:29:46;;;;;;;;;;;;;;;;;;5090990;28;19925;-68
2023/07/01 07:32:12;;;;;;;;;;;;;;;;;;5090538;28;19931;-68
2023/07/01 07:34:38;;;;;;;;;;;;;;;;;;5091211;28;20364;-68
2023/07/01 07:37:04;;;;;;;;;;;;;;;;;;5090911;28;19915;-68
2023/07/01 07:39:31;;;;;;;;;;;;;;;;;;5090506;28;19962;-68
2023/07/01 07:41:57;;;;;;;;;;;;;;;;;;5090855;28;19974;-68
2023/07/01 07:44:23;;;;;;;;;;;;;;;;;;5090767;28;19922;-68
2023/07/01 07:46:48;;;;;;;;;;;;;;;;;;5090502;28;19915;-68
2023/07/01 07:49:16;;;;;;;;;;;;;;;;;;5090629;28;19923;-68
2023/07/01 07:51:42;;;;;;;;;;;;;;;;;;5090557;28;19908;-68
2023/07/01 07:54:08;;;;;;;;;;;;;;;;;;5090338;28;20003;-68
2023/07/01 07:56:34;;;;;;;;;;;;;;;;;;5091427;28;19962;-68
2023/07/01 07:59:00;;;;;;;;;;;;;;;;;;5090500;28;19908;-68
2023/07/01 08:01:26;;;;;;;;;;;;;;;;;;5090175;28;19912;-68
2023/07/01 08:03:52;;;;;;;;;;;;;;;;;;5090403;28;19915;-68
2023/07/01 08:06:18;;;;;;;;;;;;;;;;;;5090413;28;19958;-68
2023/07/01 08:09:20;;;;;;;;;;;;;;;;;;5091136;28;20299;-68
2023/07/01 08:11:46;;;;;;;;;;;;;;;;;;5090045;28;20000;-68
2023/07/01 08:14:12;;;;;;;;;;;;;;;;;;5090002;28;20296;-68
2023/07/01 08:16:38;;;;;;;;;;;;;;;;;;5091173;28;19963;-68
2023/07/01 08:19:04;;;;;;;;;;;;;;;;;;5091268;28;19915;-68
2023/07/01 08:21:30;;;;;;;;;;;;;;;;;;5090730;28;19913;-68
2023/07/01 08:23:56;;;;;;;;;;;;;;;;;;5091116;28;19908;-68
2023/07/01 08:29:04;;;;;;;;;;;;;;;;;;5152491;27;19923;-68
2023/07/01 08:31:31;;;;;;;;;;;;;;;;;;5153112;27;19911;-68
2023/07/01 08:33:57;;;;;;;;;;;;;;;;;;5153382;27;19914;-67
2023/07/01 08:36:23;;;;;;;;;;;;;;;;;;5152712;27;20275;-68
2023/07/01 08:38:49;;;;;;;;;;;;;;;;;;5152779;27;19907;-68
2023/07/01 08:41:16;;;;;;;;;;;;;;;;;;5152701;27;19952;-68
2023/07/01 08:43:41;;;;;;;;;;;;;;;;;;5152585;27;19907;-69
2023/07/01 08:46:12;;;;;;;;;;;;;;;;;;5134145;27;19936;-69
2023/07/01 08:48:38;;;;;;;;;;;;;;;;;;5152570;27;19916;-69
2023/07/01 08:51:04;;;;;;;;;;;;;;;;;;5152188;27;19963;-69
2023/07/01 08:53:30;;;;;;;;;;;;;;;;;;5152492;27;19914;-68
2023/07/01 08:55:56;;;;;;;;;;;;;;;;;;5152463;27;19915;-68
2023/07/01 08:58:22;;;;;;;;;;;;;;;;;;5152043;27;20251;-68
2023/07/01 09:00:48;;;;;;;;;;;;;;;;;;5152849;27;19907;-67
2023/07/01 09:03:14;;;;;;;;;;;;;;;;;;5152309;27;19911;-68
2023/07/01 09:07:49;;;;;;;;;;;;;;;;;;5091712;27;19916;-68
2023/07/01 09:10:15;;;;;;;;;;;;;;;;;;5090159;28;20015;-68
2023/07/01 09:12:41;;;;;;;;;;;;;;;;;;5090913;28;20302;-69
2023/07/01 09:16:39;;;;;;;;;;;;;;;;;;5091923;27;19923;-68
2023/07/01 09:19:05;;;;;;;;;;;;;;;;;;5090973;28;19935;-68
2023/07/01 09:21:32;;;;;;;;;;;;;;;;;;5091800;28;20390;-68
2023/07/01 09:23:58;;;;;;;;;;;;;;;;;;5091275;28;20004;-68
2023/07/01 09:26:24;;;;;;;;;;;;;;;;;;5090803;28;19948;-68
2023/07/01 09:28:51;;;;;;;;;;;;;;;;;;5091145;28;19908;-69
2023/07/01 09:31:16;;;;;;;;;;;;;;;;;;5091142;28;19908;-69
2023/07/01 09:33:45;;;;;;;;;;;;;;;;;;5090667;28;19916;-68
2023/07/01 09:36:11;;;;;;;;;;;;;;;;;;5089720;28;19916;-68
2023/07/01 09:38:37;;;;;;;;;;;;;;;;;;5090771;28;19909;-68
2023/07/01 09:41:03;;;;;;;;;;;;;;;;;;5090895;28;20034;-68
2023/07/01 09:43:29;;;;;;;;;;;;;;;;;;5091105;28;19908;-69
2023/07/01 09:45:55;;;;;;;;;;;;;;;;;;5090501;28;19916;-68
2023/07/01 09:48:21;;;;;;;;;;;;;;;;;;5090827;28;19952;-69
2023/07/01 09:50:47;;;;;;;;;;;;;;;;;;5090967;28;19916;-69
2023/07/01 09:53:13;;;;;;;;;;;;;;;;;;5090581;28;20383;-69
2023/07/01 09:55:38;;;;;;;;;;;;;;;;;;5090824;28;20426;-68
2023/07/01 09:58:05;;;;;;;;;;;;;;;;;;5090940;28;20423;-69
2023/07/01 10:00:30;;;;;;;;;;;;;;;;;;5090535;28;19944;-69
2023/07/01 10:02:57;;;;;;;;;;;;;;;;;;5090457;28;19908;-68
2023/07/01 10:05:22;;;;;;;;;;;;;;;;;;5090379;28;20265;-69
2023/07/01 10:07:48;;;;;;;;;;;;;;;;;;5090075;28;19931;-68
2023/07/01 10:10:17;;;;;;;;;;;;;;;;;;5090347;28;19942;-68
2023/07/01 10:12:43;;;;;;;;;;;;;;;;;;5090581;28;19962;-68
2023/07/01 10:15:09;;;;;;;;;;;;;;;;;;5089556;28;19966;-68
2023/07/01 10:17:35;;;;;;;;;;;;;;;;;;5090218;28;20003;-68
2023/07/01 10:20:01;;;;;;;;;;;;;;;;;;5090183;28;19908;-68
2023/07/01 10:22:29;;;;;;;;;;;;;;;;;;5089849;28;19909;-68
2023/07/01 10:24:55;;;;;;;;;;;;;;;;;;5090391;28;20007;-68
2023/07/01 10:27:21;;;;;;;;;;;;;;;;;;5080030;28;19908;-68
2023/07/01 10:29:47;;;;;;;;;;;;;;;;;;5076105;28;19916;-68
2023/07/01 10:32:13;;;;;;;;;;;;;;;;;;5076329;28;20007;-68
2023/07/01 10:34:39;;;;;;;;;;;;;;;;;;5076396;28;19958;-68
2023/07/01 10:37:05;;;;;;;;;;;;;;;;;;5076018;28;19920;-69
2023/07/01 10:39:31;;;;;;;;;;;;;;;;;;5076423;28;19908;-68
2023/07/01 10:41:57;;;;;;;;;;;;;;;;;;5074601;28;19995;-68
2023/07/01 10:44:23;;;;;;;;;;;;;;;;;;5076290;28;20003;-69
2023/07/01 10:46:49;;;;;;;;;;;;;;;;;;5076485;28;19909;-68
2023/07/01 10:49:15;;;;;;;;;;;;;;;;;;5075807;28;19908;-69
2023/07/01 10:51:41;;;;;;;;;;;;;;;;;;5074891;28;19908;-69
2023/07/01 10:54:07;;;;;;;;;;;;;;;;;;5076152;28;20045;-69
2023/07/01 10:56:33;;;;;;;;;;;;;;;;;;5075596;28;19916;-69
2023/07/01 10:58:59;;;;;;;;;;;;;;;;;;5076014;28;19995;-68
2023/07/01 11:01:25;;;;;;;;;;;;;;;;;;5075967;28;19916;-69
2023/07/01 11:03:51;;;;;;;;;;;;;;;;;;5075538;28;20360;-69
2023/07/01 11:06:17;;;;;;;;;;;;;;;;;;5075902;28;19915;-69
2023/07/01 11:08:43;;;;;;;;;;;;;;;;;;5075843;28;19908;-69
2023/07/01 11:11:09;;;;;;;;;;;;;;;;;;5075411;28;19991;-70
2023/07/01 11:13:38;;;;;;;;;;;;;;;;;;5075767;28;19915;-69
2023/07/01 11:16:04;;;;;;;;;;;;;;;;;;5075519;28;19927;-70
2023/07/01 11:18:30;;;;;;;;;;;;;;;;;;5075260;28;19908;-70
2023/07/01 11:20:55;;;;;;;;;;;;;;;;;;5075618;28;20007;-69
2023/07/01 11:23:22;;;;;;;;;;;;;;;;;;5075628;28;19915;-68
2023/07/01 11:25:48;;;;;;;;;;;;;;;;;;5075155;28;19912;-68
2023/07/01 11:28:13;;;;;;;;;;;;;;;;;;5075388;28;19962;-68
2023/07/01 11:30:39;;;;;;;;;;;;;;;;;;5074156;28;19975;-69
2023/07/01 11:33:05;;;;;;;;;;;;;;;;;;5074892;28;19909;-70
2023/07/01 11:35:31;;;;;;;;;;;;;;;;;;5075386;28;19923;-70
2023/07/01 11:37:57;;;;;;;;;;;;;;;;;;5074474;28;20001;-70
2023/07/01 11:40:23;;;;;;;;;;;;;;;;;;5074668;28;19916;-69
2023/07/01 11:42:49;;;;;;;;;;;;;;;;;;5073854;28;19909;-69
2023/07/01 11:45:15;;;;;;;;;;;;;;;;;;5074625;28;20016;-69
2023/07/01 11:47:41;;;;;;;;;;;;;;;;;;5075084;28;19912;-69
2023/07/01 11:50:07;;;;;;;;;;;;;;;;;;5074995;28;20352;-67
2023/07/01 11:52:33;;;;;;;;;;;;;;;;;;5074535;28;20290;-68
2023/07/01 11:54:59;;;;;;;;;;;;;;;;;;5074660;28;20261;-69
2023/07/01 11:57:25;;;;;;;;;;;;;;;;;;5074761;28;19944;-68
2023/07/01 11:59:52;;;;;;;;;;;;;;;;;;5074295;28;19909;-68
2023/07/01 12:02:18;;;;;;;;;;;;;;;;;;5074674;28;20361;-68
2023/07/01 12:04:44;;;;;;;;;;;;;;;;;;5074751;28;19908;-68
2023/07/01 12:07:10;;;;;;;;;;;;;;;;;;5074198;28;19920;-68
2023/07/01 12:09:36;;;;;;;;;;;;;;;;;;5074591;28;19940;-68
2023/07/01 12:12:02;;;;;;;;;;;;;;;;;;5074451;28;19908;-69
2023/07/01 12:14:29;;;;;;;;;;;;;;;;;;5073978;28;20281;-69
2023/07/01 12:16:55;;;;;;;;;;;;;;;;;;5074427;28;20383;-69
2023/07/01 12:19:21;;;;;;;;;;;;;;;;;;5074575;28;19908;-69
2023/07/01 12:21:47;;;;;;;;;;;;;;;;;;5073922;28;19915;-69
2023/07/01 12:24:13;;;;;;;;;;;;;;;;;;5072990;28;20272;-69
2023/07/01 12:26:39;;;;;;;;;;;;;;;;;;5074359;28;19909;-69
2023/07/01 12:29:05;;;;;;;;;;;;;;;;;;5073856;28;19908;-69
2023/07/01 12:31:30;;;;;;;;;;;;;;;;;;5074816;28;20360;-69
2023/07/01 12:33:56;;;;;;;;;;;;;;;;;;5074401;28;20503;-69
2023/07/01 12:36:22;;;;;;;;;;;;;;;;;;5073731;28;20391;-69
2023/07/01 12:38:48;;;;;;;;;;;;;;;;;;5074429;28;20364;-69
2023/07/01 12:41:14;;;;;;;;;;;;;;;;;;5074091;28;20435;-69
2023/07/01 12:43:40;;;;;;;;;;;;;;;;;;5073688;28;20418;-69
2023/07/01 12:46:06;;;;;;;;;;;;;;;;;;5074382;28;20356;-70
2023/07/01 12:48:32;;;;;;;;;;;;;;;;;;5073595;28;20349;-69
2023/07/01 12:50:58;;;;;;;;;;;;;;;;;;5073953;28;20404;-69
2023/07/01 12:53:24;;;;;;;;;;;;;;;;;;5072590;28;19909;-70
2023/07/01 12:55:50;;;;;;;;;;;;;;;;;;5073397;28;20015;-69
2023/07/01 12:58:16;;;;;;;;;;;;;;;;;;5073935;28;19909;-69
2023/07/01 13:00:42;;;;;;;;;;;;;;;;;;5073876;28;19996;-69
2023/07/01 13:03:08;;;;;;;;;;;;;;;;;;5073730;28;20357;-70
2023/07/01 13:05:34;;;;;;;;;;;;;;;;;;5074200;28;19909;-70
2023/07/01 13:08:00;;;;;;;;;;;;;;;;;;5073844;28;20376;-70
2023/07/01 13:10:26;;;;;;;;;;;;;;;;;;5073785;28;20361;-70
2023/07/01 13:12:52;;;;;;;;;;;;;;;;;;5073719;28;20319;-69
2023/07/01 13:15:18;;;;;;;;;;;;;;;;;;5073396;28;19924;-69
2023/07/01 13:17:44;;;;;;;;;;;;;;;;;;5073253;28;19909;-69
2023/07/01 13:20:10;;;;;;;;;;;;;;;;;;5073672;28;20361;-70
2023/07/01 13:22:36;;;;;;;;;;;;;;;;;;5074102;28;20372;-69
2023/07/01 13:25:02;;;;;;;;;;;;;;;;;;5073210;28;20463;-70
2023/07/01 13:27:28;;;;;;;;;;;;;;;;;;5073541;28;19978;-69
2023/07/01 13:29:54;;;;;;;;;;;;;;;;;;5073492;28;19912;-69
2023/07/01 13:32:20;;;;;;;;;;;;;;;;;;5073372;28;19915;-69
2023/07/01 13:34:46;;;;;;;;;;;;;;;;;;5073467;28;19917;-70
2023/07/01 13:37:12;;;;;;;;;;;;;;;;;;5073508;28;19908;-69
2023/07/01 13:39:38;;;;;;;;;;;;;;;;;;5073086;28;20023;-69
2023/07/01 13:42:04;;;;;;;;;;;;;;;;;;5073460;28;19962;-69
2023/07/01 13:44:29;;;;;;;;;;;;;;;;;;5073329;28;19916;-68
2023/07/01 13:46:55;;;;;;;;;;;;;;;;;;5072875;28;19909;-69
2023/07/01 13:49:22;;;;;;;;;;;;;;;;;;5072144;28;19908;-68
2023/07/01 13:51:48;;;;;;;;;;;;;;;;;;5073300;28;19913;-69
2023/07/01 13:54:14;;;;;;;;;;;;;;;;;;5073156;28;19909;-68
2023/07/01 13:56:40;;;;;;;;;;;;;;;;;;5071893;28;19916;-69
2023/07/01 13:59:06;;;;;;;;;;;;;;;;;;5072756;28;19959;-70
2023/07/01 14:01:32;;;;;;;;;;;;;;;;;;5074021;28;19908;-69
2023/07/01 14:04:01;;;;;;;;;;;;;;;;;;5077095;28;19912;-68
2023/07/01 14:06:28;;;;;;;;;;;;;;;;;;5076669;28;19908;-68
2023/07/01 14:08:54;;;;;;;;;;;;;;;;;;5077071;28;20357;-69
2023/07/01 14:11:20;;;;;;;;;;;;;;;;;;5076782;28;19916;-68
2023/07/01 14:13:46;;;;;;;;;;;;;;;;;;5076311;28;20003;-68
2023/07/01 14:16:11;;;;;;;;;;;;;;;;;;5077121;28;19920;-69
2023/07/01 14:18:40;;;;;;;;;;;;;;;;;;5076652;28;19915;-68
2023/07/01 14:21:06;;;;;;;;;;;;;;;;;;5076376;28;20353;-69
2023/07/01 14:23:32;;;;;;;;;;;;;;;;;;5076798;28;19962;-68
2023/07/01 14:25:58;;;;;;;;;;;;;;;;;;5076716;28;19958;-68
2023/07/01 14:28:24;;;;;;;;;;;;;;;;;;5076151;28;20273;-68
2023/07/01 14:30:51;;;;;;;;;;;;;;;;;;5076726;28;19943;-70
2023/07/01 14:33:18;;;;;;;;;;;;;;;;;;5076743;28;19912;-69
2023/07/01 14:35:44;;;;;;;;;;;;;;;;;;5075980;28;19923;-69
2023/07/01 14:38:10;;;;;;;;;;;;;;;;;;5076447;28;19909;-68
2023/07/01 14:40:36;;;;;;;;;;;;;;;;;;5076383;28;19953;-68
2023/07/01 14:43:02;;;;;;;;;;;;;;;;;;5075851;28;20290;-68
2023/07/01 14:46:29;;;;;;;;;;;;;;;;;;5092123;28;19917;-68
2023/07/01 14:48:55;;;;;;;;;;;;;;;;;;5090957;28;19980;-68
2023/07/01 14:51:21;;;;;;;;;;;;;;;;;;5091270;28;19999;-68
2023/07/01 14:53:47;;;;;;;;;;;;;;;;;;5091185;28;20003;-68
2023/07/01 14:57:06;;;;;;;;;;;;;;;;;;5091096;27;19917;-67
2023/07/01 14:59:32;;;;;;;;;;;;;;;;;;5091288;28;19913;-68
2023/07/01 15:01:59;;;;;;;;;;;;;;;;;;5091211;28;19915;-68
2023/07/01 15:09:30;;;;;;;;;;;;;;;;;;5090953;27;20379;-68
2023/07/01 15:17:44;;;;;;;;;;;;;;;;;;5091196;27;20218;-68
2023/07/01 15:20:10;;;;;;;;;;;;;;;;;;5091236;28;19918;-68
2023/07/01 15:22:36;;;;;;;;;;;;;;;;;;5090026;28;19912;-70
2023/07/01 15:26:04;;;;;;;;;;;;;;;;;;5153355;27;19916;-70
2023/07/01 15:28:30;;;;;;;;;;;;;;;;;;5152901;27;20355;-69
2023/07/01 15:33:24;;;;;;;;;;;;;;;;;;5153066;27;19934;-69
2023/07/01 15:35:50;;;;;;;;;;;;;;;;;;5152752;27;20275;-68
2023/07/01 15:38:16;;;;;;;;;;;;;;;;;;5133878;27;19911;-69
2023/07/01 15:43:31;;;;;;;;;;;;;;;;;;5091308;27;19923;-68
2023/07/01 15:46:43;;;;;;;;;;;;;;;;;;5091751;28;19923;-69
2023/07/01 15:55:40;;;;;;;;;;;;;;;;;;5112252;27;20288;-67
2023/07/01 15:59:47;;;;;;;;;;;;;;;;;;5173569;27;19918;-69
2023/07/01 16:02:13;;;;;;;;;;;;;;;;;;5174179;27;19915;-68
2023/07/01 16:04:39;;;;;;;;;;;;;;;;;;5155086;27;20290;-69
2023/07/01 16:07:16;;;;;;;;;;;;;;;;;;5152729;27;20011;-68
2023/07/01 16:09:42;;;;;;;;;;;;;;;;;;5152926;27;19943;-68
2023/07/01 16:12:08;;;;;;;;;;;;;;;;;;5152775;27;19915;-68
2023/07/01 16:14:34;;;;;;;;;;;;;;;;;;5152392;27;19946;-68
2023/07/01 16:17:00;;;;;;;;;;;;;;;;;;5152690;27;19907;-67
2023/07/01 16:21:59;;;;;;;;;;;;;;;;;;5111874;27;19923;-67
2023/07/01 16:24:25;;;;;;;;;;;;;;;;;;5111716;28;20435;-68
2023/07/01 16:26:51;;;;;;;;;;;;;;;;;;5111318;28;19909;-68
2023/07/01 16:29:17;;;;;;;;;;;;;;;;;;5111618;28;19908;-69
2023/07/01 16:31:43;;;;;;;;;;;;;;;;;;5111570;28;20046;-68
2023/07/01 16:34:59;;;;;;;;;;;;;;;;;;5111549;27;19916;-68
2023/07/01 16:37:25;;;;;;;;;;;;;;;;;;5111624;28;20002;-68
2023/07/01 16:41:30;;;;;;;;;;;;;;;;;;5111862;27;19918;-67
2023/07/01 16:43:56;;;;;;;;;;;;;;;;;;5110446;28;19919;-68
2023/07/01 16:46:22;;;;;;;;;;;;;;;;;;5111587;28;20345;-68
2023/07/01 16:48:50;;;;;;;;;;;;;;;;;;5111245;28;19912;-68
2023/07/01 16:51:16;;;;;;;;;;;;;;;;;;5111575;28;19908;-68
2023/07/01 16:53:42;;;;;;;;;;;;;;;;;;5111434;28;20265;-68
2023/07/01 16:56:11;;;;;;;;;;;;;;;;;;5110962;28;19919;-67
2023/07/01 16:59:45;;;;;;;;;;;;;;;;;;5091926;27;19918;-67
2023/07/01 17:02:11;;;;;;;;;;;;;;;;;;5091366;28;20304;-67
2023/07/01 17:06:07;;;;;;;;;;;;;;;;;;5091860;27;19922;-68
2023/07/01 17:09:52;;;;;;;;;;;;;;;;;;5091135;27;20273;-68
2023/07/01 17:12:18;;;;;;;;;;;;;;;;;;5091318;28;20003;-68
2023/07/01 17:14:44;;;;;;;;;;;;;;;;;;5091049;28;19999;-68
2023/07/01 17:17:09;;;;;;;;;;;;;;;;;;5090938;28;19909;-68
2023/07/01 17:19:35;;;;;;;;;;;;;;;;;;5091089;28;19961;-68
2023/07/01 17:22:01;;;;;;;;;;;;;;;;;;5091092;28;19916;-67
2023/07/01 17:24:27;;;;;;;;;;;;;;;;;;5090618;28;19977;-68
2023/07/01 17:26:53;;;;;;;;;;;;;;;;;;5090996;28;19916;-69
2023/07/01 17:29:38;;;;;;;;;;;;;;;;;;5091447;27;19919;-67
2023/07/01 17:36:23;;;;;;;;;;;;;;;;;;5153129;27;19998;-70
2023/07/01 17:40:20;;;;;;;;;;;;;;;;;;5091285;27;19922;-68
2023/07/01 17:42:47;;;;;;;;;;;;;;;;;;5091262;28;19997;-68
2023/07/01 17:45:13;;;;;;;;;;;;;;;;;;5090899;28;19943;-68
2023/07/01 17:47:39;;;;;;;;;;;;;;;;;;5091400;28;19959;-68
2023/07/01 17:50:05;;;;;;;;;;;;;;;;;;5091090;28;20364;-69
2023/07/01 17:52:31;;;;;;;;;;;;;;;;;;5090626;28;20413;-68
2023/07/01 18:00:20;;;;;;;;;;;;;;;;;;5090823;28;19916;-68
2023/07/01 18:04:47;;;;;;;;;;;;;;;;;;5152961;27;19911;-67
2023/07/01 18:08:54;;;;;;;;;;;;;;;;;;5091885;27;19917;-68
2023/07/01 18:11:20;;;;;;;;;;;;;;;;;;5091355;28;20456;-68
2023/07/01 18:14:38;;;;;;;;;;;;;;;;;;5153112;27;20006;-70
2023/07/01 18:19:29;;;;;;;;;;;;;;;;;;5152517;27;19921;-68
2023/07/01 18:21:54;;;;;;;;;;;;;;;;;;5152965;27;20003;-67
2023/07/01 18:27:10;;;;;;;;;;;;;;;;;;5152755;27;20359;-68
2023/07/01 18:31:04;;;;;;;;;;;;;;;;;;5112238;27;19912;-68
2023/07/01 18:33:32;;;;;;;;;;;;;;;;;;5111523;28;19969;-69
2023/07/01 18:37:19;;;;;;;;;;;;;;;;;;5071238;28;20284;-67
2023/07/01 18:39:46;;;;;;;;;;;;;;;;;;5071305;28;19912;-67
2023/07/01 18:42:12;;;;;;;;;;;;;;;;;;5070665;28;20371;-68
2023/07/01 18:44:38;;;;;;;;;;;;;;;;;;5071088;28;19908;-68
2023/07/01 18:47:04;;;;;;;;;;;;;;;;;;5071019;28;19913;-67
2023/07/01 18:49:30;;;;;;;;;;;;;;;;;;5070579;28;19916;-67
2023/07/01 18:51:56;;;;;;;;;;;;;;;;;;5070890;28;19908;-68
2023/07/01 18:54:22;;;;;;;;;;;;;;;;;;5070659;28;20024;-70
2023/07/01 18:56:47;;;;;;;;;;;;;;;;;;5070712;28;19928;-67
2023/07/01 18:59:13;;;;;;;;;;;;;;;;;;5070769;28;19916;-67
2023/07/01 19:01:39;;;;;;;;;;;;;;;;;;5068991;28;19915;-69
2023/07/01 19:04:05;;;;;;;;;;;;;;;;;;5070690;28;19955;-68
2023/07/01 19:06:31;;;;;;;;;;;;;;;;;;5070677;28;19915;-68
2023/07/01 19:08:57;;;;;;;;;;;;;;;;;;5070122;28;19916;-68
2023/07/01 19:11:23;;;;;;;;;;;;;;;;;;5070510;28;19992;-68
2023/07/01 19:13:49;;;;;;;;;;;;;;;;;;5070467;28;19995;-68
2023/07/01 19:16:15;;;;;;;;;;;;;;;;;;5069851;28;19924;-67
2023/07/01 19:19:12;;;;;;;;;;;;;;;;;;5111971;27;19916;-69
2023/07/01 19:22:50;;;;;;;;;;;;;;;;;;5091244;27;20391;-68
2023/07/01 19:25:16;;;;;;;;;;;;;;;;;;5091465;28;19920;-68
2023/07/01 19:30:14;;;;;;;;;;;;;;;;;;5091333;27;19916;-68
2023/07/01 19:32:40;;;;;;;;;;;;;;;;;;5091831;28;20333;-68
2023/07/01 19:36:11;;;;;;;;;;;;;;;;;;5071232;28;19923;-67
2023/07/01 19:38:37;;;;;;;;;;;;;;;;;;5070528;28;19995;-67